Wheeler Sack Army Air Field
KGTB : now visible

Airfield :











YOU CAN JOIN US ON...

 
LOGIN :

Register | Disclaimer

   EN    FR    IT 

 









Legend :    VFR   Marginal VFR   IFR   Intensive IFR   Very Intensive IFR
Visi :
Ceiling :
>= 8 km
>= 3000ft
5 to 8 km
1000 to 3000 ft
1500m to 5 km
500 to 1000 ft
800 to 1500m
200 to 500 ft
< 800m
< 200 ft
Symbols :   Thunderstorms  Fog  Heavy snow  Heavy precipitations  Wind > 20 kt







- Airport Elevation : 688 ft


KGTB - Wheeler Sack Army Air Field

CURRENT METAR :
  • 211356Z AUTO 32003KT 9SM OVC002 07/06 A2997 RMK AO2 SLP151 T00700064

EXPIRED METARs :
  • 211336Z AUTO 31005KT 4SM BR OVC002 07/06 A2996 RMK AO2 VIS 2 3/4 RWY15 VIS 2 1/2 RWY33 SLP148
  • 211326Z AUTO 00000KT 2 1/2SM BR OVC002 07/06 A2996 RMK AO2 VIS 1 7/8V5 SLP148
  • 211256Z AUTO 21003KT 3SM BR OVC002 07/06 A2996 RMK AO2 VIS 2 1/4 RWY15 SLP149 T00670063
  • 211246Z AUTO 00000KT 7/8SM R03/3500VP6000FT BR OVC002 07/06 A2995 RMK AO2 SLP146
  • 211226Z AUTO 26003KT 3/4SM R03/3500V5000FT BR OVC002 07/06 A2994 RMK AO2 VIS 3/4V1 7/8 SLP143
  • 211216Z AUTO 26004KT 2SM BR OVC002 07/06 A2994 RMK AO2 VIS 2V4 VIS 1 1/8 RWY15 VIS 1 3/8 RWY21 SLP143
  • 211206Z AUTO 26005KT 4SM BR OVC002 07/06 A2994 RMK AO2 VIS 2 1/2 RWY15 SLP143
  • 211156Z AUTO 28004KT 1 7/8SM BR OVC002 06/06 A2993 RMK AO2 VIS 1 7/8V2 1/2 SLP140 70005 T00640060 10075 20058 52032
  • 211146Z AUTO 28006KT 2 1/2SM BR OVC002 06/06 A2993 RMK AO2 VIS 1 5/8V2 1/2 VIS 1 1/4 RWY15 VIS 2 RWY21 SLP139
  • 211136Z AUTO 28004KT 2 3/4SM BR OVC002 06/06 A2992 RMK AO2 VIS 2 3/4V4 VIS 2 1/4 RWY15 VIS 1 3/4 RWY21 SLP136
  • 211126Z AUTO 26006KT 2 3/4SM BR OVC002 06/06 A2992 RMK AO2 VIS 1 3/4V2 3/4 VIS 2 RWY15 VIS 2 RWY21 SLP136

TAF AMD TAF KGTB
Valid from the 21 at 13:00 until the 22 at 15:00 UTC


211315Z 2113/2215 VRB06KT 4800 BR BKN002 QNH2994INS
BECMG 2113/2115 VRB06KT 4800 BR BKN007 QNH2996INS
BECMG 2115/2116 VRB06KT 9999 NSW SCT010 BKN030 QNH2998INS
BECMG 2117/2118 27009KT 9999 BKN025 QNH2997INS
BECMG 2202/2203 VRB06KT 8000 BR OVC010 QNH3015INS TX14/2118Z TN06/2206Z
KZBW FIR / North America



MET'MAP, your aeronautical weather chart ! - Copyright ORBIFLY December 2007 - Disclaimer

ORBIFLY MET'MAP TEAM :

Programming & Development : Alexandra Zaïnal
Concept & Development : Baudouin d'Aumeries
Co-Development & Prog : Marc-Olivier Méhu
Technical & hardware support : Manuel Goepfert

Contact : metmap@orbifly.com




SOURCES & CREDITS :

   NOAA       Earth
Advisory